This is the latest recevied weather packets stored in our database for station/object EA7AVH-10. If no packets are shown the sender has not sent any weather packets the latest 10 day(s).
| Time | Temp. | Humidity | Pressure | Rain* | Wind** | Luminosity | Snow |
|---|---|---|---|---|---|---|---|
| 1778096854 | 13.89° C | 69% | 918.6 hPa | - | - | - | - |
| 1778095954 | 14.44° C | 67% | 918.5 hPa | - | - | - | - |
| 1778095053 | 14.44° C | 67% | 918.4 hPa | - | - | - | - |
| 1778094152 | 14.44° C | 66% | 918.2 hPa | - | - | - | - |
| 1778093252 | 15° C | 65% | 918 hPa | - | - | - | - |
| 1778092350 | 15.56° C | 66% | 917.9 hPa | - | - | - | - |
| 1778091449 | 15.56° C | 70% | 917.8 hPa | - | - | - | - |
| 1778090548 | 16.11° C | 69% | 917.7 hPa | - | - | - | - |
| 1778089647 | 16.67° C | 68% | 917.6 hPa | - | - | - | - |
| 1778088747 | 16.67° C | 68% | 917.5 hPa | - | - | - | - |
| 1778087845 | 18.33° C | 64% | 917.4 hPa | - | - | - | - |
| 1778086964 | 18.89° C | 60% | 916.7 hPa | - | - | - | - |
| 1778086063 | 18.89° C | 58% | 917 hPa | - | - | - | - |
| 1778085162 | 20° C | 54% | 916.8 hPa | - | - | - | - |
| 1778084261 | 20.56° C | 51% | 916.5 hPa | - | - | - | - |
| 1778083360 | 21.67° C | 42% | 916.7 hPa | - | - | - | - |
| 1778082460 | 21.67° C | 39% | 916.6 hPa | - | - | - | - |
| 1778081559 | 22.22° C | 38% | 916.5 hPa | - | - | - | - |
| 1778080658 | 22.78° C | 37% | 916.8 hPa | - | - | - | - |
| 1778079757 | 22.78° C | 36% | 916.7 hPa | - | - | - | - |
| 1778078856 | 24.44° C | 33% | 916.9 hPa | - | - | - | - |
| 1778077955 | 23.33° C | 35% | 917.1 hPa | - | - | - | - |
| 1778077055 | 23.33° C | 34% | 917.1 hPa | - | - | - | - |
| 1778076154 | 24.44° C | 32% | 917 hPa | - | - | - | - |
| 1778075253 | 23.89° C | 32% | 917.2 hPa | - | - | - | - |
* Rain since midnight (hover to see other rain measurements)
** Current wind speed in m/s (hover to see current wind gust speed)